createdAt,value
2022-11-05T00:03:44.270Z,99650.41
2022-11-05T00:09:01.380Z,99652.22
2022-11-05T00:14:23.669Z,99654.03
2022-11-05T00:19:27.006Z,99654.63
2022-11-05T00:24:47.583Z,99659.53
2022-11-05T00:29:52.620Z,99670.31
2022-11-05T00:34:55.716Z,99668.38
2022-11-05T00:39:59.169Z,99667.06
2022-11-05T00:45:03.818Z,99663.25
2022-11-05T00:50:10.929Z,99659.13
2022-11-05T00:55:14.442Z,99663.25
2022-11-05T01:00:19.643Z,99678.03
2022-11-05T01:05:23.077Z,99681.41
2022-11-05T01:10:26.715Z,99679.81
2022-11-05T01:15:31.501Z,99692.84
2022-11-05T01:20:35.073Z,99690.97
2022-11-05T01:25:38.374Z,99694.44
2022-11-05T01:30:43.159Z,99699.72
2022-11-05T01:35:46.410Z,99704.06
2022-11-05T01:40:49.755Z,99707.09
2022-11-05T01:45:58.890Z,99702.22
2022-11-05T01:51:05.334Z,99708.75
2022-11-05T01:56:12.353Z,99710.50
2022-11-05T02:01:17.328Z,99704.59
2022-11-05T02:06:21.276Z,99706.34
2022-11-05T02:11:24.716Z,99714.03
2022-11-05T02:16:40.023Z,99713.47
2022-11-05T02:22:26.205Z,99710.84
2022-11-05T02:28:00.377Z,99715.16
2022-11-05T02:33:28.524Z,99719.56
2022-11-05T02:38:40.908Z,99730.72
2022-11-05T02:43:55.804Z,99730.88
2022-11-05T02:49:10.183Z,99728.44
2022-11-05T02:54:18.525Z,99728.44
2022-11-05T02:59:22.044Z,99740.91
2022-11-05T03:04:27.689Z,99723.81
2022-11-05T03:10:17.716Z,99742.09
2022-11-05T03:15:31.631Z,99743.75
2022-11-05T03:20:41.022Z,99757.53
2022-11-05T03:25:50.805Z,99762.50
2022-11-05T03:30:58.074Z,99776.56
2022-11-05T03:36:07.271Z,99778.28
2022-11-05T03:41:15.731Z,99776.56
2022-11-05T03:46:23.987Z,99791.47
2022-11-05T03:51:38.025Z,99783.53
2022-11-05T03:56:46.810Z,99787.97
2022-11-05T04:01:51.482Z,99798.22
2022-11-05T04:07:13.539Z,99792.50
2022-11-05T04:12:46.006Z,99803.66
2022-11-05T04:17:49.443Z,99788.03
2022-11-05T04:23:17.489Z,99805.03
2022-11-05T04:28:20.977Z,99804.63
2022-11-05T04:33:24.347Z,99802.19
2022-11-05T04:38:29.004Z,99812.50
2022-11-05T04:43:32.222Z,99813.13
2022-11-05T04:48:35.624Z,99805.78
2022-11-05T04:53:40.290Z,99813.16
2022-11-05T04:58:43.774Z,99815.38
2022-11-05T05:03:48.530Z,99821.28
2022-11-05T05:08:53.249Z,99830.88
2022-11-05T05:13:56.603Z,99833.66
2022-11-05T05:19:00.020Z,99847.50
2022-11-05T05:24:05.140Z,99839.00
2022-11-05T05:29:09.110Z,99847.63
2022-11-05T05:34:13.925Z,99848.00
2022-11-05T05:39:18.412Z,99858.94
2022-11-05T05:44:21.965Z,99855.75
2022-11-05T05:49:25.236Z,99857.22
2022-11-05T05:54:32.913Z,99871.75
2022-11-05T05:59:37.601Z,99879.06
2022-11-05T06:04:40.864Z,99878.69
2022-11-05T06:09:45.728Z,99879.63
2022-11-05T06:14:49.277Z,99888.16
2022-11-05T06:19:52.791Z,99891.50
2022-11-05T06:24:57.561Z,99894.31
2022-11-05T06:30:00.975Z,99900.94
2022-11-05T06:35:04.398Z,99894.13
2022-11-05T06:40:10.505Z,99892.78
2022-11-05T06:45:13.724Z,99894.13
2022-11-05T06:50:17.255Z,99897.50
2022-11-05T06:55:21.984Z,99900.25
2022-11-05T07:00:25.796Z,99905.84
2022-11-05T07:05:29.053Z,99912.59
2022-11-05T07:10:34.168Z,99924.25
2022-11-05T07:15:38.613Z,99927.81
2022-11-05T07:20:42.069Z,99940.00
2022-11-05T07:25:46.885Z,99926.88
2022-11-05T07:30:50.148Z,99954.09
2022-11-05T07:35:53.433Z,99957.69
2022-11-05T07:41:00.617Z,99955.66
2022-11-05T07:46:03.926Z,99959.56
2022-11-05T07:51:07.339Z,99965.56
2022-11-05T07:56:12.416Z,99969.81
2022-11-05T08:01:15.816Z,99967.19
2022-11-05T08:06:19.251Z,99961.00
2022-11-05T08:11:24.254Z,99965.78
2022-11-05T08:16:28.061Z,99967.25
2022-11-05T08:21:31.292Z,99975.84
2022-11-05T08:26:36.054Z,99972.66
2022-11-05T08:31:39.460Z,99972.38
2022-11-05T08:36:46.620Z,99981.72
2022-11-05T08:41:51.442Z,99983.53
2022-11-05T08:46:56.646Z,99981.72
2022-11-05T08:51:59.997Z,99989.97
2022-11-05T08:57:04.806Z,99983.34
2022-11-05T09:02:08.713Z,99977.19
2022-11-05T09:07:12.337Z,99975.75
2022-11-05T09:12:17.234Z,99970.22
2022-11-05T09:17:21.997Z,99979.16
2022-11-05T09:22:25.391Z,99983.06
2022-11-05T09:27:29.992Z,99979.78
2022-11-05T09:32:33.383Z,99973.81
2022-11-05T09:37:37.377Z,99988.69
2022-11-05T09:42:47.152Z,99996.38
2022-11-05T09:47:54.979Z,99986.81
2022-11-05T09:52:59.208Z,99985.97
2022-11-05T09:58:08.085Z,99990.94
2022-11-05T10:03:17.271Z,100001.19
2022-11-05T10:08:24.579Z,100004.84
2022-11-05T10:13:38.272Z,100001.56
2022-11-05T10:18:44.680Z,100003.78
2022-11-05T10:23:48.921Z,100009.75
2022-11-05T10:28:54.657Z,100008.38
2022-11-05T10:34:02.372Z,100012.44
2022-11-05T10:39:12.944Z,100022.59
2022-11-05T10:44:29.726Z,100018.66
2022-11-05T10:49:48.465Z,100023.91
2022-11-05T10:54:56.486Z,100032.19
2022-11-05T11:00:26.431Z,100021.16
2022-11-05T11:05:33.963Z,100030.19
2022-11-05T11:10:42.350Z,100004.72
2022-11-05T11:15:47.452Z,100033.00
2022-11-05T11:20:50.873Z,100036.84
2022-11-05T11:26:02.923Z,100049.72
2022-11-05T11:31:12.044Z,100044.53
2022-11-05T11:36:19.776Z,100047.97
2022-11-05T11:41:27.067Z,100046.16
2022-11-05T11:46:36.305Z,100059.88
2022-11-05T11:51:49.654Z,100058.84
2022-11-05T11:56:53.493Z,100065.75
2022-11-05T12:02:44.258Z,100069.19
2022-11-05T12:07:53.261Z,100049.88
2022-11-05T12:13:27.365Z,100069.50
2022-11-05T12:18:44.159Z,100065.75
2022-11-05T12:24:15.837Z,100066.63
2022-11-05T12:29:36.134Z,100061.41
2022-11-05T12:34:49.881Z,100054.56
2022-11-05T12:40:04.548Z,100059.59
2022-11-05T12:45:28.668Z,100065.63
2022-11-05T12:50:41.250Z,100072.09
2022-11-05T12:55:49.733Z,100071.78
2022-11-05T13:00:58.540Z,100074.28
2022-11-05T13:06:09.007Z,100051.19
2022-11-05T13:11:21.148Z,100084.34
2022-11-05T13:16:31.079Z,100088.56
2022-11-05T13:21:37.434Z,100091.88
2022-11-05T13:26:48.462Z,100087.47
2022-11-05T13:31:57.889Z,100102.13
2022-11-05T13:37:23.001Z,100107.13
2022-11-05T13:42:46.033Z,100112.97
2022-11-05T13:48:19.654Z,100112.78
2022-11-05T13:53:47.645Z,100116.81
2022-11-05T13:59:21.175Z,100118.50
2022-11-05T14:04:32.243Z,100131.94
2022-11-05T14:09:38.985Z,100134.28
2022-11-05T14:14:47.164Z,100141.44
2022-11-05T14:19:53.362Z,100137.25
2022-11-05T14:24:58.273Z,100140.91
2022-11-05T14:30:02.050Z,100139.28
2022-11-05T14:35:35.884Z,100139.81
2022-11-05T14:40:42.463Z,100136.25
2022-11-05T14:45:55.796Z,100149.06
2022-11-05T14:51:00.500Z,100144.63
2022-11-05T14:56:08.495Z,100152.22
2022-11-05T15:01:49.773Z,100158.72
2022-11-05T15:07:28.686Z,100158.41
2022-11-05T15:12:38.561Z,100156.59
2022-11-05T15:17:51.308Z,100153.13
2022-11-05T15:23:00.187Z,100155.63
2022-11-05T15:28:12.061Z,100167.50
2022-11-05T15:33:22.322Z,100164.34
2022-11-05T15:38:35.127Z,100162.91
2022-11-05T15:43:47.958Z,100180.19
2022-11-05T15:48:54.451Z,100176.81
2022-11-05T15:59:27.197Z,100181.63
2022-11-05T16:04:32.613Z,100183.53
2022-11-05T16:09:40.087Z,100188.06
2022-11-05T16:14:45.391Z,100190.72
2022-11-05T16:19:49.926Z,100181.25
2022-11-05T16:24:53.987Z,100181.19
2022-11-05T16:29:59.065Z,100181.84
2022-11-05T16:35:05.424Z,100174.84
2022-11-05T16:40:15.495Z,100161.06
2022-11-05T16:45:23.067Z,100169.13
2022-11-05T16:50:31.782Z,100169.72
2022-11-05T16:55:37.650Z,100180.56
2022-11-05T17:00:42.448Z,100191.00
2022-11-05T17:05:45.531Z,100186.47
2022-11-05T17:10:48.881Z,100195.66
2022-11-05T17:15:54.836Z,100195.41
2022-11-05T17:20:58.399Z,100189.56
2022-11-05T17:26:03.793Z,100193.22
2022-11-05T17:31:10.256Z,100195.44
2022-11-05T17:36:16.195Z,100198.00
2022-11-05T17:41:22.436Z,100198.06
2022-11-05T17:46:27.192Z,100188.53
2022-11-05T17:51:30.657Z,100193.31
2022-11-05T17:56:40.283Z,100197.97
2022-11-05T18:01:48.900Z,100205.13
2022-11-05T18:06:52.290Z,100206.41
2022-11-05T18:11:55.747Z,100198.94
2022-11-05T18:17:00.933Z,100204.63
2022-11-05T18:22:04.386Z,100205.06
2022-11-05T18:27:09.344Z,100199.81
2022-11-05T18:32:14.204Z,100198.56
2022-11-05T18:37:17.334Z,100198.22
2022-11-05T18:42:20.720Z,100209.69
2022-11-05T18:47:25.685Z,100205.59
2022-11-05T18:52:31.645Z,100199.06
2022-11-05T18:57:35.621Z,100204.06
2022-11-05T19:02:40.728Z,100198.94
2022-11-05T19:07:44.330Z,100205.50
2022-11-05T19:12:47.613Z,100213.25
2022-11-05T19:17:53.001Z,100204.47
2022-11-05T19:22:56.281Z,100210.69
2022-11-05T19:27:59.592Z,100214.22
2022-11-05T19:33:04.858Z,100206.47
2022-11-05T19:38:08.322Z,100208.66
2022-11-05T19:43:11.846Z,100220.84
2022-11-05T19:48:21.140Z,100220.41
2022-11-05T19:53:24.706Z,100229.22
2022-11-05T19:58:27.959Z,100231.09
2022-11-05T20:03:33.952Z,100235.56
2022-11-05T20:08:59.373Z,100240.66
2022-11-05T20:14:01.719Z,100241.25
2022-11-05T20:19:09.056Z,100245.88
2022-11-05T20:24:17.419Z,100249.41
2022-11-05T20:29:34.764Z,100241.66
2022-11-05T20:34:40.282Z,100237.69
2022-11-05T20:39:46.545Z,100227.13
2022-11-05T20:44:50.722Z,100235.66
2022-11-05T20:49:55.675Z,100236.75
2022-11-05T20:54:59.046Z,100235.78
2022-11-05T21:00:02.624Z,100246.47
2022-11-05T21:05:09.612Z,100245.44
2022-11-05T21:10:12.981Z,100246.84
2022-11-05T21:15:20.321Z,100249.19
2022-11-05T21:20:25.892Z,100249.22
2022-11-05T21:25:29.349Z,100251.44
2022-11-05T21:30:33.020Z,100252.56
2022-11-05T21:35:41.202Z,100251.81
2022-11-05T21:40:45.224Z,100253.59
2022-11-05T21:45:48.654Z,100264.16
2022-11-05T21:51:12.170Z,100265.34
2022-11-05T21:56:37.489Z,100275.41
2022-11-05T22:01:40.969Z,100248.78
2022-11-05T22:06:45.806Z,100264.03
2022-11-05T22:11:49.114Z,100262.78
2022-11-05T22:16:52.526Z,100269.16
2022-11-05T22:21:57.284Z,100260.50
2022-11-05T22:27:00.523Z,100270.84
2022-11-05T22:32:03.951Z,100269.97
2022-11-05T22:37:09.214Z,100262.88
2022-11-05T22:42:12.763Z,100275.34
2022-11-05T22:47:18.190Z,100280.28
2022-11-05T22:52:22.823Z,100286.47
2022-11-05T22:57:26.097Z,100291.44
2022-11-05T23:02:29.578Z,100297.88
2022-11-05T23:07:51.665Z,100288.59
2022-11-05T23:12:56.076Z,100295.19
2022-11-05T23:18:17.189Z,100287.19
2022-11-05T23:23:39.158Z,100289.84
2022-11-05T23:28:42.396Z,100284.75
2022-11-05T23:33:45.859Z,100280.69
2022-11-05T23:38:50.454Z,100281.69
2022-11-05T23:44:11.369Z,100292.28
2022-11-05T23:49:14.849Z,100291.44
2022-11-05T23:54:19.683Z,100289.19
2022-11-05T23:59:22.754Z,100277.50
